KHSP/HSP METAR and TAF weather

Enter ICAO airport designator
Station Type Date Time Source
KHSP METAR 2022/06/25 22:55 UTC NOAA

KHSP 252255Z AUTO 16008KT 10SM CLR 23/19 A3026 RMK AO1 LTG DSNT W T02300189


Station Type Date Time Source
KHSP Decoded METAR 2022/06/25 22:55 UTC NOAA

Hot Springs / Ingalls, VA, United States (KHSP) 37-57N 079-50W
Jun 25, 2022 - 06:55 PM EDT / 2022.06.25 2255 UTC
Wind: from the SSE (160 degrees) at 9 MPH (8 KT):0
Visibility: 10 mile(s):0
Sky conditions: clear
Weather: Lightning observed
Temperature: 73.4 F (23.0 C)
Dew Point: 66.0 F (18.9 C)
Relative Humidity: 77%
Pressure (altimeter): 30.26 in. Hg (1024 hPa)
ob: KHSP 252255Z AUTO 16008KT 10SM CLR 23/19 A3026 RMK AO1 LTG DSNT W T02300189
cycle: 23

Station Type Date Time Source
KHSP TAF UTC NOAA

Error!

Example: see airport list